Blue Springs, NE (68318)

12:21 AM CST on February 10, 2016 (GMT -0600)
Cornhusker Country U.S.A. | | Change Station
CLOSE
Current Station
Personal Weather Station
Location: Odell, NE
Elevation: 1325 ft
Nearby Weather Stations

Elev 1325 ft 40.05 °N, 96.80 °W | Updated 10 seconds ago

Mostly Cloudy
Mostly Cloudy
23.2 °F
Feels Like 23 °F
N
0.4
Wind Variable Wind from SSW
Gusts 2.5 mph

Today
High -- | Low -- °F
--% Chance of Precip.
Yesterday
High -- | Low -- °F
Precip. -- in
Pressure 30.20 in
Visibility 10.0 miles
Clouds Overcast 10000 ft
Windchill 23 °F
Dew Point 15 °F
Humidity 72%
Rainfall 0.00 in
Snow Depth Not available.
7:26 AM 5:55 PM
Waxing Crescent, 4% visible
METAR KBIE 100615Z AUTO 23004KT 10SM OVC100 M04/M08 A3020 RMK AO2 T10451085
Pressure 30.20 in
Visibility 10.0 miles
Clouds Overcast 10000 ft
Windchill 23 °F
Dew Point 15 °F
Humidity 72%
Rainfall 0.00 in
Snow Depth Not available.
7:26 AM 5:55 PM
Waxing Crescent, 4% visible
METAR KBIE 100615Z AUTO 23004KT 10SM OVC100 M04/M08 A3020 RMK AO2 T10451085

10-Day Weather Forecast

Almanac

Astronomy

Feb. 10, 2016 Rise Set
Actual Time
Civil Twilight
Nautical Twilight
Astronomical Twilight
Moon
Length of Visible Light
Length of Day
Tomorrow will be .
, % of the Moon is Illuminated

Today's Extremes

State Highs State Lows

Community

WunderPhotos

Upload Photos

1,891,826 photos uploaded!

WunderBlog® & News

Nearby

Air Quality

  Air Quality AQ Index Pollutant
Not available.

Snow Depth

Station Depth Elevation

Earthquake Activity

City Distance Mag. Time & Date
Minimum magnitude displayed is 2.5.

Coastal Water Temperatures

Place Temperature

Stations

Nearby Weather Stations

Station Location Temp. Windchill Dew Point Humidity Wind Precip. Elev Updated Type
                   

Watches & Warnings

There are currently no watches in effect.